Overview Statistics Trail Chart Weather Telemetry Raw packets
 

This is the latest recevied weather packets stored in our database for station/object WA1TYB-13. If no packets are shown the sender has not sent any weather packets the latest 10 day(s).

<< 93 94 95 96 97 98 99 >>
Time Temp. Humidity Pressure Rain* Wind** Luminosity Snow
1787917226 13.33° C 62% 1018.4 hPa 0 mm - 0 W/m² -
1787916920 12.78° C 63% 1018.4 hPa 0 mm - 0 W/m² -
1787916620 13.33° C 62% 1018.8 hPa 0 mm - 0 W/m² -
1787916314 13.33° C 61% 1018.9 hPa 0 mm - 0 W/m² -
1787916009 13.89° C 59% 1018.5 hPa 0 mm - 0 W/m² -
1787915704 13.89° C 59% 1018.4 hPa 0 mm - 0 W/m² -
1787915403 13.89° C 58% 1018.5 hPa 0 mm - 0 W/m² -
1787915094 13.89° C 55% 1018 hPa 0 mm - 0 W/m² -
1787914793 13.89° C 58% 1018.1 hPa 0 mm - 0 W/m² -
1787914493 13.89° C 58% 1018 hPa 0 mm - 0 W/m² -
1787914188 13.89° C 58% 1017.9 hPa 0 mm - 0 W/m² -
1787913888 13.89° C 58% 1018.2 hPa 0 mm - 0 W/m² -
1787913582 13.89° C 56% 1017.9 hPa 0 mm - 0 W/m² -
1787913281 14.44° C 54% 1017.9 hPa 0 mm - 0 W/m² -
1787912981 15° C 53% 1017.9 hPa 0 mm - 0 W/m² -
1787912680 14.44° C 54% 1017.9 hPa 0 mm - 0 W/m² -
1787912379 14.44° C 54% 1017.9 hPa 0 mm - 0 W/m² -
1787912079 14.44° C 54% 1018.2 hPa 0 mm - 0 W/m² -
1787911774 14.44° C 53% 1018 hPa 0 mm - 0 W/m² -
1787911468 15° C 53% 1018.1 hPa 0 mm - 0 W/m² -
1787911166 14.44° C 54% 1017.9 hPa 0 mm - 0 W/m² -
1787910865 13.89° C 55% 1017.8 hPa 0 mm - 0 W/m² -
1787910561 13.89° C 55% 1017.9 hPa 0 mm - 0 W/m² -
1787910255 13.89° C 55% 1017.7 hPa 0 mm - 0 W/m² -
1787909954 13.89° C 54% 1017.7 hPa 0 mm - 0 W/m² -

* Rain latest hour (hover to see other rain measurements)
** Current wind speed in m/s (hover to see current wind gust speed)